ID Time Temp Humidity Light PM2.5 PM10 Voltage Extra Firmware Position Fcnt TTN version Gateways Distance RSSI LSNR Radiosettings
2026-05-09 09:57:31 16.1875°C 91.0625% 9 μg/m³ 9 μg/m³ 4.18V / 2.99V 79,91,97,100,623,632,633,633,551,6211 v7 52.0772 / 5.09619 7184 ttn.v3 0.016km -94 12.2 868.1MHz, SF9BW125, 4/5CR
1.75km -126 -12 868.1MHz, SF9BW125, 4/5CR
2026-05-09 09:42:31 16.375°C 80.5625% 9 μg/m³ 9 μg/m³ 4.18V / 2.99V 91,96,96,96,721,724,724,724,454,6052 v7 52.0772 / 5.09619 7183 ttn.v3 0.016km -94 13.2 867.1MHz, SF9BW125, 4/5CR
2026-05-09 09:27:31 15.875°C 91.25% 7 μg/m³ 7 μg/m³ 4.18V / 2.99V 68,75,76,77,542,546,546,547,492,6070 v7 52.0772 / 5.09619 7182 ttn.v3 0.016km -111 1.8 868.3MHz, SF9BW125, 4/5CR
2026-05-09 09:12:31 13.875°C 116.938% 11 μg/m³ 12 μg/m³ 4.16V / 2.99V 113,120,120,120,898,902,902,902,468,5243 v7 52.0772 / 5.09619 7181 ttn.v3 0.016km -93 10.2 867.5MHz, SF9BW125, 4/5CR
2026-05-09 08:57:31 11.9375°C 7.6875% 19 μg/m³ 19 μg/m³ 4.06V / 2.99V 184,195,195,195,1464,1469,1470,1470,445,4354 v7 52.0772 / 5.09619 7180 ttn.v3 0.016km -98 6 868.3MHz, SF9BW125, 4/5CR
2026-05-09 08:42:31 11.0625°C 14% 18 μg/m³ 21 μg/m³ 4.04V / 2.99V 159,188,206,214,1239,1262,1266,1267,611,4337 v7 52.0772 / 5.09619 7179 ttn.v3 0.016km -92 12 867.7MHz, SF9BW125, 4/5CR
2026-05-09 08:27:31 10.5625°C 16.0625% 16 μg/m³ 16 μg/m³ 4.04V / 2.99V 159,169,169,169,1268,1272,1273,1273,452,4328 v7 52.0772 / 5.09619 7178 ttn.v3 0.016km -94 12 868.3MHz, SF9BW125, 4/5CR
2026-05-09 08:12:30 10°C 17% 17 μg/m³ 18 μg/m³ 4.04V / 2.99V 162,177,182,184,1286,1295,1297,1297,511,4310 v7 52.0772 / 5.09619 7177 ttn.v3 0.016km -92 10.5 867.5MHz, SF9BW125, 4/5CR
2026-05-09 07:57:30 9.5625°C 17.9375% 21 μg/m³ 22 μg/m³ 4.04V / 2.99V 198,216,222,225,1567,1579,1580,1581,495,4293 v7 52.0772 / 5.09619 7176 ttn.v3 0.016km -90 9.8 868.5MHz, SF9BW125, 4/5CR
2026-05-09 07:42:30 9.1875°C 18.5% 18 μg/m³ 18 μg/m³ 4.04V / 2.99V 174,184,184,184,1385,1390,1390,1390,449,4275 v7 52.0772 / 5.09619 7175 ttn.v3 0.016km -92 12 867.3MHz, SF9BW125, 4/5CR
2026-05-09 07:27:30 8.875°C 18.8125% 22 μg/m³ 24 μg/m³ 4.04V / 2.99V 199,224,236,242,1566,1585,1587,1588,589,4258 v7 52.0772 / 5.09619 7174 ttn.v3 0.016km -92 12 868.1MHz, SF9BW125, 4/5CR
2026-05-09 07:12:30 8.5625°C 19% 21 μg/m³ 21 μg/m³ 4.04V / 3V 195,212,216,218,1545,1556,1557,1557,520,4240 v7 52.0772 / 5.09619 7173 ttn.v3 0.016km -92 12.2 867.1MHz, SF9BW125, 4/5CR
2026-05-09 06:57:30 8.1875°C 19% 22 μg/m³ 23 μg/m³ 4.04V / 3V 209,225,229,230,1653,1664,1665,1665,460,4214 v7 52.0772 / 5.09619 7172 ttn.v3 0.016km -91 12.5 868.3MHz, SF9BW125, 4/5CR
2026-05-09 06:42:30 8.0625°C 19.0625% 20 μg/m³ 20 μg/m³ 4.04V / 2.99V 195,207,207,207,1553,1559,1560,1560,446,4055 v7 52.0772 / 5.09619 7171 ttn.v3 0.016km -91 12.5 867.1MHz, SF9BW125, 4/5CR
2026-05-09 06:27:30 8.125°C 19.25% 20 μg/m³ 20 μg/m³ 4.04V / 2.99V 188,202,205,206,1495,1504,1505,1505,459,3615 v7 52.0772 / 5.09619 7170 ttn.v3 0.016km -92 11.8 868.3MHz, SF9BW125, 4/5CR
2026-05-09 06:12:30 8.0625°C 19.375% 21 μg/m³ 21 μg/m³ 4.04V / 2.99V 192,210,216,219,1522,1534,1535,1535,490,3008 v7 52.0772 / 5.09619 7169 ttn.v3 0.016km -93 12.8 867.9MHz, SF9BW125, 4/5CR
1.75km -126 -10.25 867.9MHz, SF9BW125, 4/5CR
4.365km -110 -10.5 867.9MHz, SF9BW125, 4/5CR
2026-05-09 05:57:30 7.9375°C 19.375% 23 μg/m³ 25 μg/m³ 4.04V / 2.99V 217,240,249,253,1712,1728,1730,1731,517,2120 v7 52.0772 / 5.09619 7168 ttn.v3 0.016km -92 13.8 868.3MHz, SF9BW125, 4/5CR
2026-05-09 05:42:29 7.875°C 19.75% 20 μg/m³ 20 μg/m³ 4.04V / 2.99V 198,210,210,210,1577,1583,1583,1583,456,1178 v7 52.0772 / 5.09619 7167 ttn.v3 0.016km -91 12.5 867.1MHz, SF9BW125, 4/5CR
2026-05-09 05:27:29 8.0625°C 19.9375% 20 μg/m³ 21 μg/m³ 4.04V / 3V 187,207,214,217,1482,1495,1497,1497,544,351 v7 52.0772 / 5.09619 7166 ttn.v3 0.016km -90 11 868.5MHz, SF9BW125, 4/5CR
2026-05-09 05:12:29 8.25°C 19.6875% 17 μg/m³ 18 μg/m³ 4.04V / 2.99V 160,176,181,183,1267,1277,1278,1279,529,70 v7 52.0772 / 5.09619 7165 ttn.v3 0.016km -91 12.2 867.1MHz, SF9BW125, 4/5CR
2026-05-09 04:57:29 8.3125°C 19.6875% 15 μg/m³ 16 μg/m³ 4.04V / 3V 142,159,166,169,1124,1135,1137,1137,549,52 v7 52.0772 / 5.09619 7164 ttn.v3 0.016km -90 10 868.3MHz, SF9BW125, 4/5CR
2026-05-09 04:42:29 8.375°C 19.875% 15 μg/m³ 16 μg/m³ 4.06V / 3V 148,160,162,164,1175,1182,1183,1183,460,52 v7 52.0772 / 5.09619 7163 ttn.v3 0.016km -91 12.5 867.3MHz, SF9BW125, 4/5CR
1.75km -127 -11.5 867.3MHz, SF9BW125, 4/5CR
2026-05-09 04:27:29 8.3125°C 19.75% 18 μg/m³ 18 μg/m³ 4.06V / 3V 177,188,188,188,1410,1416,1416,1416,437,52 v7 52.0772 / 5.09619 7162 ttn.v3 0.016km -91 10.8 868.5MHz, SF9BW125, 4/5CR
2026-05-09 04:12:29 8.375°C 19.8125% 20 μg/m³ 20 μg/m³ 4.06V / 2.99V 198,210,210,210,1576,1582,1583,1583,445,52 v7 52.0772 / 5.09619 7161 ttn.v3 0.016km -91 12.5 867.3MHz, SF9BW125, 4/5CR
1.75km -126 -11 867.3MHz, SF9BW125, 4/5CR
2026-05-09 03:57:29 8.4375°C 19.9375% 15 μg/m³ 16 μg/m³ 4.06V / 2.99V 140,157,164,168,1102,1114,1115,1116,489,52 v7 52.0772 / 5.09619 7160 ttn.v3 0.016km -93 11.5 868.1MHz, SF9BW125, 4/5CR
2026-05-09 03:42:28 8.5°C 19.9375% 15 μg/m³ 15 μg/m³ 4.06V / 2.99V 143,151,151,151,1139,1143,1143,1143,443,52 v7 52.0772 / 5.09619 7159 ttn.v3 0.016km -93 12 867.9MHz, SF9BW125, 4/5CR
4.365km -110 -8.75 867.9MHz, SF9BW125, 4/5CR
2026-05-09 03:27:28 8.5625°C 19.9375% 13 μg/m³ 14 μg/m³ 4.06V / 2.99V 116,132,139,143,914,926,927,928,545,52 v7 52.0772 / 5.09619 7158 ttn.v3 0.016km -91 13.8 868.3MHz, SF9BW125, 4/5CR
2026-05-09 03:12:28 8.75°C 19.8125% 14 μg/m³ 14 μg/m³ 4.06V / 2.99V 131,144,148,150,1038,1047,1048,1048,483,52 v7 52.0772 / 5.09619 7157 ttn.v3 0.016km -90 10 867.5MHz, SF9BW125, 4/5CR
2026-05-09 02:57:28 8.9375°C 19.625% 13 μg/m³ 13 μg/m³ 4.06V / 2.99V 129,137,137,137,1029,1033,1033,1033,440,61 v7 52.0772 / 5.09619 7156 ttn.v3 0.016km -90 12.5 868.1MHz, SF9BW125, 4/5CR
1.75km -124 -9 868.1MHz, SF9BW125, 4/5CR
2026-05-09 02:42:28 9.0625°C 19.25% 16 μg/m³ 17 μg/m³ 4.08V / 2.99V 150,167,175,179,1179,1192,1194,1194,475,61 v7 52.0772 / 5.09619 7155 ttn.v3 0.016km -92 11.8 867.9MHz, SF9BW125, 4/5CR
2026-05-09 02:27:28 9.25°C 18.75% 10 μg/m³ 11 μg/m³ 4.08V / 2.99V 97,107,110,112,769,776,776,776,467,61 v7 52.0772 / 5.09619 7154 ttn.v3 0.016km -94 12.2 868.1MHz, SF9BW125, 4/5CR
2026-05-09 02:12:28 9.4375°C 18.0625% 9 μg/m³ 9 μg/m³ 4.08V / 2.99V 90,95,95,95,718,720,720,720,454,61 v7 52.0772 / 5.09619 7153 ttn.v3 0.016km -96 11.5 867.9MHz, SF9BW125, 4/5CR
1.75km -129 -13.25 867.9MHz, SF9BW125, 4/5CR
2026-05-09 01:57:28 9.625°C 16.75% 16 μg/m³ 16 μg/m³ 4.08V / 2.99V 151,160,160,160,1205,1209,1209,1209,435,61 v7 52.0772 / 5.09619 7152 ttn.v3 0.016km -94 12.5 868.1MHz, SF9BW125, 4/5CR
2026-05-09 01:42:28 9.875°C 15.5% 15 μg/m³ 15 μg/m³ 4.08V / 2.99V 138,150,154,156,1096,1104,1104,1105,485,61 v7 52.0772 / 5.09619 7151 ttn.v3 0.016km -93 10.2 867.5MHz, SF9BW125, 4/5CR
2026-05-09 01:27:27 10.125°C 14.3125% 9 μg/m³ 9 μg/m³ 4.08V / 2.99V 85,95,98,100,674,681,682,682,493,70 v7 52.0772 / 5.09619 7150 ttn.v3 0.016km -95 10.8 868.3MHz, SF9BW125, 4/5CR
2026-05-09 01:12:27 10.3125°C 13.4375% 9 μg/m³ 9 μg/m³ 4.08V / 2.99V 86,90,90,90,680,683,683,683,364,70 v7 52.0772 / 5.09619 7149 ttn.v3 0.016km -93 11.8 867.1MHz, SF9BW125, 4/5CR
2026-05-09 00:57:27 10.4375°C 12.3125% 8 μg/m³ 9 μg/m³ 4.08V / 2.99V 72,83,89,91,562,571,572,572,571,70 v7 52.0772 / 5.09619 7148 ttn.v3 0.016km -93 11.5 868.3MHz, SF9BW125, 4/5CR
2026-05-09 00:42:27 10.6875°C 10.125% 14 μg/m³ 14 μg/m³ 4.08V / 2.99V 133,143,145,146,1059,1065,1065,1066,479,70 v7 52.0772 / 5.09619 7147 ttn.v3 0.016km -94 13.2 867.7MHz, SF9BW125, 4/5CR
2026-05-09 00:27:27 10.875°C 9.3125% 8 μg/m³ 8 μg/m³ 4.08V / 2.99V 82,86,86,86,650,652,652,652,431,70 v7 52.0772 / 5.09619 7146 ttn.v3 0.016km -91 12 868.3MHz, SF9BW125, 4/5CR
2026-05-09 00:12:27 10.875°C 8.4375% 12 μg/m³ 12 μg/m³ 4.1V / 3V 110,122,127,129,865,874,875,875,517,70 v7 52.0772 / 5.09619 7145 ttn.v3 0.016km -96 11.8 867.9MHz, SF9BW125, 4/5CR
2026-05-08 23:57:27 10.625°C 12.375% 9 μg/m³ 9 μg/m³ 4.1V / 2.99V 92,97,97,97,731,734,734,734,437,70 v7 52.0772 / 5.09619 7144 ttn.v3 0.016km -91 11 868.5MHz, SF9BW125, 4/5CR
2026-05-08 23:42:27 10.75°C 13.4375% 10 μg/m³ 10 μg/m³ 4.1V / 3V 99,105,105,105,790,793,793,793,418,70 v7 52.0772 / 5.09619 7143 ttn.v3 0.016km -91 12.5 867.3MHz, SF9BW125, 4/5CR
1.75km -128 -12.25 867.3MHz, SF9BW125, 4/5CR
2026-05-08 23:27:27 11°C 10.5% 11 μg/m³ 11 μg/m³ 4.1V / 2.99V 113,119,119,119,898,902,902,902,431,70 v7 52.0772 / 5.09619 7142 ttn.v3 0.016km -91 11 868.5MHz, SF9BW125, 4/5CR
2026-05-08 23:12:26 11.1875°C 8.5% 9 μg/m³ 9 μg/m³ 4.1V / 3V 85,92,95,96,670,675,676,676,478,70 v7 52.0772 / 5.09619 7141 ttn.v3 0.016km -91 10.8 867.5MHz, SF9BW125, 4/5CR
2026-05-08 22:57:26 11.375°C 8.25% 8 μg/m³ 9 μg/m³ 4.1V / 2.99V 77,85,89,90,604,610,611,611,528,70 v7 52.0772 / 5.09619 7140 ttn.v3 0.016km -91 10.2 868.5MHz, SF9BW125, 4/5CR
2026-05-08 22:42:26 11.625°C 7% 8 μg/m³ 9 μg/m³ 4.1V / 2.99V 74,84,90,93,578,586,587,588,557,79 v7 52.0772 / 5.09619 7139 ttn.v3 0.016km -92 11 867.5MHz, SF9BW125, 4/5CR
2026-05-08 22:27:26 11.9375°C 3.0625% 9 μg/m³ 10 μg/m³ 4.1V / 2.99V 88,100,106,109,691,700,701,702,517,79 v7 52.0772 / 5.09619 7138 ttn.v3 0.016km -92 12 868.1MHz, SF9BW125, 4/5CR
1.75km -125 -11 868.1MHz, SF9BW125, 4/5CR
2026-05-08 22:12:26 12.25°C -0.4375% 6 μg/m³ 6 μg/m³ 4.12V / 2.99V 60,65,66,67,476,479,480,480,493,79 v7 52.0772 / 5.09619 7137 ttn.v3 0.016km -91 11 867.5MHz, SF9BW125, 4/5CR
2026-05-08 21:57:26 12.5625°C -5.375% 8 μg/m³ 9 μg/m³ 4.12V / 2.99V 78,86,89,90,613,619,620,620,490,87 v7 52.0772 / 5.09619 7136 ttn.v3 0.016km -91 11 868.5MHz, SF9BW125, 4/5CR
2026-05-08 21:42:26 12.9375°C 113.688% 11 μg/m³ 11 μg/m³ 4.12V / 2.99V 104,110,110,110,829,832,832,832,420,167 v7 52.0772 / 5.09619 7135 ttn.v3 0.016km -92 12.2 867.7MHz, SF9BW125, 4/5CR
2026-05-08 21:27:26 13.3125°C 108.312% 7 μg/m³ 7 μg/m³ 4.12V / 2.99V 71,75,75,76,563,565,565,565,458,818 v7 52.0772 / 5.09619 7134 ttn.v3 0.016km -91 10.5 868.3MHz, SF9BW125, 4/5CR
2026-05-08 21:12:26 13.8125°C 102% 9 μg/m³ 9 μg/m³ 4.12V / 2.99V 86,94,97,98,678,684,685,685,542,1812 v7 52.0772 / 5.09619 7133 ttn.v3 0.016km -94 13 867.9MHz, SF9BW125, 4/5CR
1.75km -128 -12.5 867.9MHz, SF9BW125, 4/5CR
2026-05-08 20:57:26 14.3125°C 95.3125% 7 μg/m³ 9 μg/m³ 4.12V / 2.99V 54,72,84,90,412,427,429,430,765,2718 v7 52.0772 / 5.09619 7132 ttn.v3 0.016km -97 11.5 868.1MHz, SF9BW125, 4/5CR
1.75km -126 -13 868.1MHz, SF9BW125, 4/5CR
2026-05-08 20:42:25 14.75°C 91.3125% 7 μg/m³ 7 μg/m³ 4.14V / 2.99V 75,79,79,79,597,599,600,600,419,3290 v7 52.0772 / 5.09619 7131 ttn.v3 0.016km -95 12.5 867.7MHz, SF9BW125, 4/5CR
2026-05-08 20:27:25 15.1875°C 80.8125% 8 μg/m³ 9 μg/m³ 4.14V / 2.99V 67,81,89,93,525,536,538,538,636,3826 v7 52.0772 / 5.09619 7130 ttn.v3 0.016km -95 11 868.3MHz, SF9BW125, 4/5CR
2026-05-08 20:12:25 15.375°C 77.9375% 10 μg/m³ 11 μg/m³ 4.14V / 2.99V 93,104,109,111,731,739,740,740,556,4170 v7 52.0772 / 5.09619 7129 ttn.v3 0.016km -98 12 867.1MHz, SF9BW125, 4/5CR
2026-05-08 19:57:25 15.625°C 78.625% 5 μg/m³ 6 μg/m³ 4.14V / 2.99V 46,57,65,68,355,365,366,366,572,4302 v7 52.0772 / 5.09619 7128 ttn.v3 0.016km -93 7.2 868.5MHz, SF9BW125, 4/5CR
2026-05-08 19:42:26 15.8125°C 76.6875% 7 μg/m³ 8 μg/m³ 4.14V / 2.99V 72,80,82,84,570,575,576,576,527,4328 v7 52.0772 / 5.09619 7127 ttn.v3 0.016km -98 12 867.3MHz, SF9BW125, 4/5CR
2026-05-08 19:27:25 16°C 74.4375% 9 μg/m³ 9 μg/m³ 4.14V / 2.99V 83,91,94,95,658,663,663,664,483,4346 v7 52.0772 / 5.09619 7126 ttn.v3 0.016km -95 11.5 868.1MHz, SF9BW125, 4/5CR
2026-05-08 19:12:26 16.125°C 68.5625% 7 μg/m³ 8 μg/m³ 4.14V / 2.99V 59,71,79,82,462,472,473,474,610,4354 v7 52.0772 / 5.09619 7125 ttn.v3 0.016km -96 12 867.7MHz, SF9BW125, 4/5CR
- -127 -11 867.7MHz, SF9BW125, 4/5CR
1.75km -129 -13.25 867.7MHz, SF9BW125, 4/5CR
2026-05-08 18:57:25 16.5625°C 63.625% 8 μg/m³ 9 μg/m³ 4.14V / 2.99V 80,89,93,94,629,635,636,637,579,4328 v7 52.0772 / 5.09619 7124 ttn.v3 0.016km -94 11 868.5MHz, SF9BW125, 4/5CR
2026-05-08 18:42:26 16.9375°C 60.375% 4 μg/m³ 4 μg/m³ 4.14V / 2.99V 43,45,45,45,341,343,343,343,406,4390 v7 52.0772 / 5.09619 7123 ttn.v3 0.016km -97 12.2 867.3MHz, SF9BW125, 4/5CR
2026-05-08 18:27:25 16.75°C 65.6875% 8 μg/m³ 9 μg/m³ 4.14V / 2.99V 73,87,95,99,570,581,583,583,618,4442 v7 52.0772 / 5.09619 7122 ttn.v3 0.016km -94 7.8 868.5MHz, SF9BW125, 4/5CR
2026-05-08 18:12:25 16.6875°C 64.375% 6 μg/m³ 6 μg/m³ 4.14V / 2.99V 60,65,66,67,471,475,475,475,484,4398 v7 52.0772 / 5.09619 7121 ttn.v3 0.016km -94 11.2 867.5MHz, SF9BW125, 4/5CR
2026-05-08 17:57:24 16.75°C 60.625% 7 μg/m³ 7 μg/m³ 4.14V / 2.99V 66,73,76,77,519,524,525,525,508,4372 v7 52.0772 / 5.09619 7120 ttn.v3 0.016km -97 13 868.1MHz, SF9BW125, 4/5CR
1.75km -126 -11 868.1MHz, SF9BW125, 4/5CR
2026-05-08 17:42:25 16.8125°C 55.3125% 5 μg/m³ 5 μg/m³ 4.14V / 2.99V 51,55,56,56,405,408,408,408,512,4363 v7 52.0772 / 5.09619 7119 ttn.v3 0.016km -94 12.2 867.7MHz, SF9BW125, 4/5CR
2026-05-08 17:27:24 16.9375°C 55.25% 8 μg/m³ 9 μg/m³ 4.14V / 2.99V 67,81,90,95,518,530,532,532,614,4363 v7 52.0772 / 5.09619 7118 ttn.v3 0.016km -96 13 868.1MHz, SF9BW125, 4/5CR
1.75km -127 -12.5 868.1MHz, SF9BW125, 4/5CR
2026-05-08 17:12:25 17.0625°C 51.6875% 8 μg/m³ 9 μg/m³ 4.14V / 2.99V 74,85,92,94,580,589,590,591,592,4381 v7 52.0772 / 5.09619 7117 ttn.v3 0.016km -95 12.5 867.7MHz, SF9BW125, 4/5CR
2026-05-08 16:57:24 17.125°C 55.375% 8 μg/m³ 8 μg/m³ 4.14V / 2.99V 79,83,83,83,627,629,629,630,444,4390 v7 52.0772 / 5.09619 7116 ttn.v3 0.016km -95 11.8 868.1MHz, SF9BW125, 4/5CR
1.75km -125 -10.5 868.1MHz, SF9BW125, 4/5CR
2026-05-08 16:42:25 17.375°C 63.375% 10 μg/m³ 11 μg/m³ 4.14V / 2.99V 92,106,113,116,722,732,734,734,592,4416 v7 52.0772 / 5.09619 7115 ttn.v3 0.016km -94 12.8 867.7MHz, SF9BW125, 4/5CR
2026-05-08 16:27:24 17.4375°C 57.5625% 29 μg/m³ 29 μg/m³ 4.14V / 2.99V 275,294,297,298,2182,2193,2194,2195,468,4451 v7 52.0772 / 5.09619 7114 ttn.v3 0.016km -96 12.2 868.1MHz, SF9BW125, 4/5CR
1.75km -125 -10.75 868.1MHz, SF9BW125, 4/5CR
2026-05-08 16:12:25 17.25°C 61.125% 6 μg/m³ 6 μg/m³ 4.12V / 2.99V 64,67,67,67,507,509,509,509,448,5762 v7 52.0772 / 5.09619 7113 ttn.v3 0.016km -93 13.2 867.7MHz, SF9BW125, 4/5CR
2026-05-08 15:57:24 17.125°C 63.0625% 11 μg/m³ 11 μg/m³ 4.12V / 2.99V 113,119,119,119,896,899,899,899,424,5736 v7 52.0772 / 5.09619 7112 ttn.v3 0.016km -94 12.5 868.1MHz, SF9BW125, 4/5CR
1.75km -127 -12.5 868.1MHz, SF9BW125, 4/5CR
2026-05-08 15:42:08 17°C 67.3125% 11 μg/m³ 12 μg/m³ 4.14V / 2.99V 104,117,123,125,821,831,832,832,553,5577 v7 52.0772 / 5.09619 7111 ttn.v3 0.016km -94 11 867.5MHz, SF9BW125, 4/5CR
2026-05-08 15:27:24 17.0625°C 65.5625% 10 μg/m³ 11 μg/m³ 4.14V / 2.99V 99,108,110,111,785,791,791,792,471,5480 v7 52.0772 / 5.09619 7110 ttn.v3 0.016km -94 11.2 868.3MHz, SF9BW125, 4/5CR
2026-05-08 15:12:25 17°C 68.9375% 11 μg/m³ 11 μg/m³ 4.14V / 2.99V 105,111,111,111,831,834,835,835,449,5516 v7 52.0772 / 5.09619 7109 ttn.v3 0.016km -93 9 868.5MHz, SF9BW125, 4/5CR
2026-05-08 14:57:23 17°C 67.9375% 9 μg/m³ 10 μg/m³ 4.14V / 2.99V 81,93,99,102,638,647,648,648,540,5507 v7 52.0772 / 5.09619 7108 ttn.v3 0.016km -91 12.2 868.3MHz, SF9BW125, 4/5CR
2026-05-08 14:42:23 17.1875°C 65.5% 13 μg/m³ 13 μg/m³ 4.14V / 2.99V 120,131,134,136,950,958,958,959,513,5366 v7 52.0772 / 5.09619 7107 ttn.v3 0.016km -92 12 868.1MHz, SF9BW125, 4/5CR
2026-05-08 14:27:24 17.4375°C 69.0625% 13 μg/m³ 13 μg/m³ 4.14V / 2.99V 120,132,136,138,951,959,960,960,540,5498 v7 52.0772 / 5.09619 7106 ttn.v3 0.016km -96 6.8 868.5MHz, SF9BW125, 4/5CR
2026-05-08 14:12:24 17.5°C 64.9375% 17 μg/m³ 18 μg/m³ 4.14V / 2.99V 155,175,184,189,1223,1237,1239,1240,578,5630 v7 52.0772 / 5.09619 7105 ttn.v3 0.016km -93 11 868.3MHz, SF9BW125, 4/5CR
2026-05-08 13:57:07 17.5°C 66.25% 11 μg/m³ 12 μg/m³ 4.16V / 2.99V 97,111,117,121,762,772,774,774,580,5709 v7 52.0772 / 5.09619 7104 ttn.v3 0.016km -96 9.2 868.5MHz, SF9BW125, 4/5CR
2026-05-08 13:42:52 18.3125°C 63.75% 12 μg/m³ 13 μg/m³ 4.16V / 2.99V 117,128,132,134,924,932,933,933,513,5692 v7 52.0772 / 5.09619 7103 ttn.v3 0.016km -100 8.2 867.1MHz, SF12BW125, 4/5CR
2026-05-08 13:27:08 19.8125°C 55.3125% 13 μg/m³ 13 μg/m³ 4.16V / 2.99V 124,133,136,137,980,986,986,987,478,5938 v7 52.0773 / 5.09616 7102 ttn.v3 0.027km -97 8.8 868.3MHz, SF9BW125, 4/5CR
2026-05-08 13:12:07 21.6875°C 53.9375% 10 μg/m³ 10 μg/m³ 4.18V / 2.99V 95,104,108,109,749,755,756,756,457,6167 v7 52.0773 / 5.09616 7101 ttn.v3 0.027km -99 12.2 867.9MHz, SF9BW125, 4/5CR
2026-05-08 12:57:08 21.6875°C 53.625% 15 μg/m³ 15 μg/m³ 4.18V / 2.99V 148,157,157,157,1179,1184,1184,1184,373,6219 v7 52.0773 / 5.09616 7100 ttn.v3 0.027km -95 11.2 868.3MHz, SF9BW125, 4/5CR
2026-05-08 12:42:07 20.5625°C 56.5% 11 μg/m³ 12 μg/m³ 4.18V / 2.99V 106,117,121,123,834,842,843,843,482,6246 v7 52.0773 / 5.09616 7099 ttn.v3 0.027km -114 7.8 867.1MHz, SF9BW125, 4/5CR
2026-05-08 12:27:08 19.875°C 71.1875% 14 μg/m³ 14 μg/m³ 4.18V / 2.99V 132,144,147,148,1048,1055,1056,1056,476,6228 v7 52.0773 / 5.09616 7098 ttn.v3 0.027km -92 10.2 868.5MHz, SF9BW125, 4/5CR
2026-05-08 12:12:07 18°C 73.1875% 16 μg/m³ 17 μg/m³ 4.18V / 2.99V 152,169,176,179,1204,1216,1217,1217,543,6290 v7 52.0773 / 5.09616 7097 ttn.v3 0.027km -100 12.8 867.3MHz, SF9BW125, 4/5CR
2026-05-08 11:57:07 17.1875°C 78.8125% 18 μg/m³ 18 μg/m³ 4.2V / 2.99V 167,180,184,185,1321,1330,1331,1331,486,6307 v7 52.0773 / 5.09616 7096 ttn.v3 0.027km -92 8.5 868.5MHz, SF9BW125, 4/5CR
2026-05-08 11:42:06 16.125°C 86.8125% 13 μg/m³ 13 μg/m³ 4.2V / 2.99V 124,132,132,132,989,993,993,993,429,6175 v7 52.0773 / 5.09616 7095 ttn.v3 0.027km -96 10.5 867.5MHz, SF9BW125, 4/5CR
2026-05-08 11:27:06 15.6875°C 92.5% 14 μg/m³ 15 μg/m³ 4.18V / 2.99V 133,147,152,154,1051,1060,1061,1062,476,6096 v7 52.0773 / 5.09616 7094 ttn.v3 0.027km -93 9.5 868.5MHz, SF9BW125, 4/5CR
2026-05-08 11:12:06 15.1875°C 98% 10 μg/m³ 11 μg/m³ 4.2V / 2.99V 95,107,112,114,751,760,761,761,568,6105 v7 52.0773 / 5.09616 7093 ttn.v3 0.027km -96 11.8 867.9MHz, SF9BW125, 4/5CR
2026-05-08 10:57:06 14.875°C 107.312% 11 μg/m³ 11 μg/m³ 4.18V / 2.99V 102,110,112,113,806,812,812,812,493,6061 v7 52.0773 / 5.09616 7092 ttn.v3 0.027km -90 10.5 868.3MHz, SF9BW125, 4/5CR
2026-05-08 10:42:06 14.125°C 111.188% 14 μg/m³ 16 μg/m³ 4.18V / 2.99V 126,149,162,168,981,999,1002,1003,528,6052 v7 52.0773 / 5.09616 7091 ttn.v3 0.027km -95 12.2 867.3MHz, SF9BW125, 4/5CR
2026-05-08 10:27:06 13.5°C 111.188% 10 μg/m³ 10 μg/m³ 4.18V / 2.99V 97,106,109,110,771,776,777,777,466,6000 v7 52.0773 / 5.09616 7090 ttn.v3 0.027km -90 9 868.5MHz, SF9BW125, 4/5CR
2026-05-08 10:12:06 12.8125°C 0.25% 13 μg/m³ 14 μg/m³ 4.18V / 2.99V 122,136,142,145,965,975,977,977,526,5445 v7 52.0773 / 5.09616 7089 ttn.v3 0.027km -93 11.5 867.3MHz, SF9BW125, 4/5CR
1.756km -125 -10.25 867.3MHz, SF9BW125, 4/5CR
2026-05-08 09:57:06 12.25°C 1.625% 16 μg/m³ 16 μg/m³ 4.16V / 2.99V 154,165,167,167,1223,1229,1230,1230,508,4689 v7 52.0773 / 5.09616 7088 ttn.v3 0.027km -91 12.5 868.1MHz, SF9BW125, 4/5CR
1.756km -125 -11.5 868.1MHz, SF9BW125, 4/5CR
2026-05-08 09:42:06 11.8125°C 8.0625% 18 μg/m³ 20 μg/m³ 4.14V / 3V 168,189,199,203,1325,1340,1342,1342,537,4645 v7 52.0773 / 5.09616 7087 ttn.v3 0.027km -94 11.8 867.9MHz, SF9BW125, 4/5CR
4.362km -101 -9.5 867.9MHz, SF9BW125, 4/5CR
1.756km -128 -11.75 867.9MHz, SF9BW125, 4/5CR
2026-05-08 09:27:06 11.375°C 9.6875% 18 μg/m³ 18 μg/m³ 4.1V / 2.99V 169,182,184,186,1343,1351,1352,1352,485,4548 v7 52.0773 / 5.09616 7086 ttn.v3 0.027km -93 11.5 868.3MHz, SF9BW125, 4/5CR
2026-05-08 09:12:06 11°C 13.3125% 21 μg/m³ 22 μg/m³ 4.08V / 2.99V 191,211,219,223,1509,1523,1525,1526,542,4486 v7 52.0773 / 5.09616 7085 ttn.v3 0.027km -90 10 867.5MHz, SF9BW125, 4/5CR
2026-05-08 08:57:05 10.75°C 15.5625% 25 μg/m³ 26 μg/m³ 4.08V / 2.99V 229,254,263,268,1810,1828,1830,1830,520,4425 v7 52.0773 / 5.09616 7084 ttn.v3 0.027km -93 11.5 868.1MHz, SF9BW125, 4/5CR
2026-05-08 08:42:05 10.4375°C 16.9375% 21 μg/m³ 21 μg/m³ 4.06V / 2.99V 195,210,214,216,1543,1553,1554,1554,489,4381 v7 52.0773 / 5.09616 7083 ttn.v3 0.027km -95 11.8 867.1MHz, SF9BW125, 4/5CR
2026-05-08 08:27:05 10.125°C 17.5% 21 μg/m³ 23 μg/m³ 4.06V / 2.99V 192,218,230,236,1513,1532,1535,1535,588,4346 v7 52.0773 / 5.09616 7082 ttn.v3 0.027km -92 12 868.1MHz, SF9BW125, 4/5CR
2026-05-08 08:12:05 10.0625°C 18.125% 22 μg/m³ 23 μg/m³ 4.04V / 2.99V 206,228,236,239,1632,1647,1648,1649,557,4319 v7 52.0773 / 5.09616 7081 ttn.v3 0.027km -91 12.8 867.3MHz, SF9BW125, 4/5CR
2026-05-08 07:57:05 9.9375°C 18.375% 25 μg/m³ 28 μg/m³ 4.04V / 3V 223,256,274,282,1749,1775,1779,1779,601,4293 v7 52.0773 / 5.09616 7080 ttn.v3 0.027km -90 11.8 868.3MHz, SF9BW125, 4/5CR
2026-05-08 07:42:05 9.75°C 18.875% 26 μg/m³ 28 μg/m³ 4.04V / 2.99V 236,266,281,287,1860,1883,1885,1886,570,4266 v7 52.0773 / 5.09616 7079 ttn.v3 0.027km -92 12.2 867.9MHz, SF9BW125, 4/5CR
1.756km -126 -9.5 867.9MHz, SF9BW125, 4/5CR
2026-05-08 07:27:05 9.6875°C 18.9375% 22 μg/m³ 22 μg/m³ 4.04V / 3V 206,223,227,228,1635,1645,1646,1647,518,4266 v7 52.0773 / 5.09616 7078 ttn.v3 0.027km -94 13.5 868.1MHz, SF9BW125, 4/5CR
2026-05-08 07:12:05 9.5625°C 19.125% 23 μg/m³ 24 μg/m³ 4.04V / 2.99V 216,236,242,245,1711,1724,1726,1726,539,4231 v7 52.0773 / 5.09616 7077 ttn.v3 0.027km -91 12.5 867.9MHz, SF9BW125, 4/5CR
2026-05-08 06:57:05 9.5625°C 19.1875% 23 μg/m³ 25 μg/m³ 4.04V / 2.99V 213,238,249,254,1679,1697,1699,1700,568,4205 v7 52.0773 / 5.09616 7076 ttn.v3 0.027km -93 11 868.1MHz, SF9BW125, 4/5CR
2026-05-08 06:42:04 9.5625°C 19.125% 21 μg/m³ 24 μg/m³ 4.04V / 2.99V 190,219,234,241,1495,1517,1520,1521,625,3870 v7 52.0773 / 5.09616 7075 ttn.v3 0.027km -90 13.5 867.1MHz, SF9BW125, 4/5CR
2026-05-08 06:27:04 9.6875°C 18.8125% 20 μg/m³ 21 μg/m³ 4.04V / 2.99V 190,206,211,213,1503,1514,1515,1515,518,3316 v7 52.0773 / 5.09616 7074 ttn.v3 0.027km -90 9.5 868.5MHz, SF9BW125, 4/5CR
2026-05-08 06:12:04 9.75°C 18.5625% 30 μg/m³ 34 μg/m³ 4.04V / 2.99V 262,306,331,342,2049,2084,2088,2090,620,2630 v7 52.0773 / 5.09616 7073 ttn.v3 0.027km -90 13.8 867.9MHz, SF9BW125, 4/5CR
2026-05-08 05:57:04 9.875°C 18.125% 19 μg/m³ 21 μg/m³ 4.06V / 2.99V 172,196,208,214,1353,1371,1374,1374,589,1829 v7 52.0773 / 5.09616 7072 ttn.v3 0.027km -91 14.8 868.1MHz, SF9BW125, 4/5CR
1.756km -126 -11.25 868.1MHz, SF9BW125, 4/5CR
2026-05-08 05:42:04 9.9375°C 17.9375% 25 μg/m³ 26 μg/m³ 4.06V / 2.99V 235,255,260,263,1861,1874,1875,1876,484,721 v7 52.0773 / 5.09616 7071 ttn.v3 0.027km -90 12.5 867.3MHz, SF9BW125, 4/5CR
2026-05-08 05:27:04 10.0625°C 17.25% 21 μg/m³ 21 μg/m³ 4.06V / 2.99V 195,212,217,219,1547,1558,1559,1559,493,149 v7 52.0773 / 5.09616 7070 ttn.v3 0.027km -89 9 868.1MHz, SF9BW125, 4/5CR
1.756km -125 -12.25 868.1MHz, SF9BW125, 4/5CR
2026-05-08 05:12:04 10.125°C 17% 23 μg/m³ 23 μg/m³ 4.06V / 3V 216,233,238,240,1710,1721,1722,1723,471,70 v7 52.0773 / 5.09616 7069 ttn.v3 0.027km -90 11.5 867.7MHz, SF9BW125, 4/5CR
2026-05-08 04:57:04 10.1875°C 16.75% 21 μg/m³ 22 μg/m³ 4.06V / 3V 198,218,225,229,1562,1576,1578,1578,503,70 v7 52.0773 / 5.09616 7068 ttn.v3 0.027km -89 10 868.5MHz, SF9BW125, 4/5CR
2026-05-08 04:42:04 10.25°C 16.0625% 17 μg/m³ 18 μg/m³ 4.06V / 3V 152,172,182,187,1195,1210,1213,1213,550,70 v7 52.0773 / 5.09616 7067 ttn.v3 0.027km -90 10.8 867.5MHz, SF9BW125, 4/5CR
2026-05-08 04:27:03 10.375°C 15.5% 18 μg/m³ 18 μg/m³ 4.06V / 2.99V 169,184,187,189,1341,1351,1352,1352,462,70 v7 52.0773 / 5.09616 7066 ttn.v3 0.027km -89 10 868.5MHz, SF9BW125, 4/5CR
2026-05-08 04:12:03 10.5°C 14.9375% 18 μg/m³ 18 μg/m³ 4.06V / 2.99V 175,187,188,189,1393,1400,1400,1401,476,70 v7 52.0773 / 5.09616 7065 ttn.v3 0.027km -89 12.5 867.9MHz, SF9BW125, 4/5CR
2026-05-08 03:57:03 10.5°C 14% 14 μg/m³ 14 μg/m³ 4.08V / 3V 133,141,141,141,1059,1063,1063,1063,435,70 v7 52.0773 / 5.09616 7064 ttn.v3 0.027km -93 12.2 868.1MHz, SF9BW125, 4/5CR
2026-05-08 03:42:03 10.625°C 12.875% 17 μg/m³ 17 μg/m³ 4.08V / 2.99V 167,176,176,176,1326,1331,1331,1331,433,70 v7 52.0773 / 5.09616 7063 ttn.v3 0.027km -89 14 867.7MHz, SF9BW125, 4/5CR
2026-05-08 03:27:03 10.8125°C 11.4375% 11 μg/m³ 11 μg/m³ 4.08V / 2.99V 113,120,120,120,901,905,905,905,417,70 v7 52.0773 / 5.09616 7062 ttn.v3 0.027km -91 10.2 868.5MHz, SF9BW125, 4/5CR
2026-05-08 03:12:03 10.9375°C 10% 15 μg/m³ 15 μg/m³ 4.08V / 2.99V 149,157,157,157,1181,1186,1186,1186,455,70 v7 52.0773 / 5.09616 7061 ttn.v3 0.027km -97 12.8 867.1MHz, SF9BW125, 4/5CR
2026-05-08 02:57:03 11.0625°C 9% 18 μg/m³ 20 μg/m³ 4.08V / 2.99V 162,185,196,201,1272,1289,1292,1292,537,70 v7 52.0773 / 5.09616 7060 ttn.v3 0.027km -95 8 868.3MHz, SF9BW125, 4/5CR
2026-05-08 02:42:03 11.1875°C 8.6875% 15 μg/m³ 16 μg/m³ 4.08V / 3V 136,155,163,167,1074,1088,1090,1090,485,70 v7 52.0773 / 5.09616 7059 ttn.v3 0.027km -92 10.5 867.5MHz, SF9BW125, 4/5CR
2026-05-08 02:27:03 11.3125°C 7.625% 14 μg/m³ 16 μg/m³ 4.08V / 2.99V 119,141,154,160,926,944,947,947,573,70 v7 52.0773 / 5.09616 7058 ttn.v3 0.027km -93 12.2 868.3MHz, SF9BW125, 4/5CR
2026-05-08 02:12:03 11.5°C 6% 14 μg/m³ 15 μg/m³ 4.08V / 2.99V 132,145,150,153,1042,1051,1052,1053,520,70 v7 52.0773 / 5.09616 7057 ttn.v3 0.027km -95 10.8 867.5MHz, SF9BW125, 4/5CR
2026-05-08 01:57:02 11.5625°C 5.125% 14 μg/m³ 14 μg/m³ 4.08V / 2.99V 140,148,148,148,1112,1116,1116,1116,407,70 v7 52.0773 / 5.09616 7056 ttn.v3 0.027km -95 12.2 868.1MHz, SF9BW125, 4/5CR
2026-05-08 01:42:02 11.6875°C 3.9375% 19 μg/m³ 19 μg/m³ 4.08V / 2.99V 177,191,195,196,1402,1411,1412,1412,481,79 v7 52.0773 / 5.09616 7055 ttn.v3 0.027km -97 14.8 867.1MHz, SF9BW125, 4/5CR
2026-05-08 01:27:02 11.75°C 3% 13 μg/m³ 13 μg/m³ 4.08V / 2.99V 127,134,134,134,1007,1010,1011,1011,425,79 v7 52.0773 / 5.09616 7054 ttn.v3 0.027km -91 12.8 868.1MHz, SF9BW125, 4/5CR
2026-05-08 01:12:02 11.8125°C 2.5625% 20 μg/m³ 20 μg/m³ 4.08V / 2.99V 193,204,204,204,1532,1538,1538,1538,423,79 v7 52.0773 / 5.09616 7053 ttn.v3 0.027km -90 11.8 867.3MHz, SF9BW125, 4/5CR
1.756km -125 -9 867.3MHz, SF9BW125, 4/5CR
2026-05-08 00:57:02 11.9375°C 1.0625% 13 μg/m³ 14 μg/m³ 4.1V / 2.99V 126,139,143,145,999,1007,1008,1008,471,79 v7 52.0773 / 5.09616 7052 ttn.v3 0.027km -92 11.5 868.3MHz, SF9BW125, 4/5CR
2026-05-08 00:42:02 12°C 0.0625% 14 μg/m³ 14 μg/m³ 4.1V / 2.99V 136,144,144,144,1082,1086,1086,1086,414,79 v7 52.0773 / 5.09616 7051 ttn.v3 0.027km -90 12 867.1MHz, SF9BW125, 4/5CR
2026-05-08 00:27:02 12.125°C -1.9375% 12 μg/m³ 12 μg/m³ 4.1V / 2.99V 115,122,122,122,917,921,921,921,456,79 v7 52.0773 / 5.09616 7050 ttn.v3 0.027km -91 12.8 868.1MHz, SF9BW125, 4/5CR
2026-05-08 00:12:02 12.25°C -5.375% 11 μg/m³ 12 μg/m³ 4.1V / 3V 99,114,121,125,780,791,793,793,530,79 v7 52.0773 / 5.09616 7049 ttn.v3 0.027km -93 11.8 867.3MHz, SF9BW125, 4/5CR
1.756km -126 -11.25 867.3MHz, SF9BW125, 4/5CR
2026-05-07 23:57:02 12.5°C 115.375% 10 μg/m³ 10 μg/m³ 4.1V / 2.99V 104,110,110,110,826,829,829,829,421,79 v7 52.0773 / 5.09616 7048 ttn.v3 0.027km -90 10.2 868.5MHz, SF9BW125, 4/5CR
2026-05-07 23:42:02 12.625°C 109.375% 10 μg/m³ 10 μg/m³ 4.1V / 3V 97,105,107,108,768,773,773,773,471,79 v7 52.0773 / 5.09616 7047 ttn.v3 0.027km -93 11.8 867.1MHz, SF9BW125, 4/5CR
2026-05-07 23:27:01 12.8125°C 106% 7 μg/m³ 8 μg/m³ 4.12V / 2.99V 68,78,83,86,534,541,543,543,574,87 v7 52.0773 / 5.09616 7046 ttn.v3 0.027km -89 10.8 868.5MHz, SF9BW125, 4/5CR
2026-05-07 23:12:01 12.9375°C 103.438% 3 μg/m³ 3 μg/m³ 4.12V / 2.99V 32,35,37,38,250,253,253,253,531,87 v7 52.0773 / 5.09616 7045 ttn.v3 0.027km -94 13 867.3MHz, SF9BW125, 4/5CR
1.756km -124 -7.5 867.3MHz, SF9BW125, 4/5CR
2026-05-07 22:57:01 13.125°C 99.1875% 8 μg/m³ 8 μg/m³ 4.12V / 2.99V 84,89,89,89,667,669,670,670,425,87 v7 52.0773 / 5.09616 7044 ttn.v3 0.027km -92 11.8 868.3MHz, SF9BW125, 4/5CR
2026-05-07 22:42:01 13.375°C 93% 1 μg/m³ 2 μg/m³ 4.12V / 2.99V 16,19,21,22,122,125,125,126,492,87 v7 52.0773 / 5.09616 7043 ttn.v3 0.027km -96 12 867.3MHz, SF9BW125, 4/5CR
1.756km -126 -9.75 867.3MHz, SF9BW125, 4/5CR
2026-05-07 22:27:01 13.5°C 91.1875% 2 μg/m³ 2 μg/m³ 4.12V / 2.99V 21,22,22,22,164,164,164,165,478,87 v7 52.0773 / 5.09616 7042 ttn.v3 0.027km -93 11.5 868.3MHz, SF9BW125, 4/5CR
2026-05-07 22:12:01 13.5625°C 89% 3 μg/m³ 3 μg/m³ 4.12V / 2.99V 30,34,35,36,240,242,243,243,463,87 v7 52.0773 / 5.09616 7041 ttn.v3 0.027km -92 12.5 867.7MHz, SF9BW125, 4/5CR
2026-05-07 21:57:01 13.6875°C 86.5625% 2 μg/m³ 2 μg/m³ 4.12V / 2.99V 18,21,23,24,142,145,145,145,495,96 v7 52.0773 / 5.09616 7040 ttn.v3 0.027km -94 11.5 868.3MHz, SF9BW125, 4/5CR
2026-05-07 21:42:01 13.75°C 83.8125% 3 μg/m³ 3 μg/m³ 4.14V / 2.99V 33,35,35,35,263,264,264,264,312,167 v7 52.0773 / 5.09616 7039 ttn.v3 0.027km -95 10.5 867.5MHz, SF9BW125, 4/5CR
2026-05-07 21:27:01 13.9375°C 83.1875% 3 μg/m³ 4 μg/m³ 4.14V / 2.99V 34,40,42,44,271,275,275,276,518,651 v7 52.0773 / 5.09616 7038 ttn.v3 0.027km -93 12 868.1MHz, SF9BW125, 4/5CR
2026-05-07 21:12:01 13.9375°C 80.875% 3 μg/m³ 6 μg/m³ 4.14V / 2.99V 21,39,54,60,148,164,166,167,932,1425 v7 52.0773 / 5.09616 7037 ttn.v3 0.027km -96 10.2 867.5MHz, SF9BW125, 4/5CR
2026-05-07 20:57:00 14.125°C 83.6875% 3 μg/m³ 3 μg/m³ 4.14V / 2.99V 34,36,36,36,273,274,274,274,352,2639 v7 52.0773 / 5.09616 7036 ttn.v3 0.027km -93 9.8 868.5MHz, SF9BW125, 4/5CR
2026-05-07 20:42:00 14.25°C 78.1875% 4 μg/m³ 4 μg/m³ 4.14V / 2.99V 42,45,45,45,337,338,338,338,447,2938 v7 52.0773 / 5.09616 7035 ttn.v3 0.027km -93 13.8 867.3MHz, SF9BW125, 4/5CR
2026-05-07 20:27:00 14.375°C 77.25% 1 μg/m³ 1 μg/m³ 4.14V / 2.99V 17,19,20,20,138,139,139,139,510,3175 v7 52.0773 / 5.09616 7034 ttn.v3 0.027km -91 9 868.5MHz, SF9BW125, 4/5CR
2026-05-07 20:12:00 14.5°C 75.6875% 2 μg/m³ 2 μg/m³ 4.14V / 2.99V 20,21,21,21,157,158,158,158,427,3378 v7 52.0773 / 5.09616 7033 ttn.v3 0.027km -93 13.2 867.9MHz, SF9BW125, 4/5CR
1.756km -127 -11 867.9MHz, SF9BW125, 4/5CR
2026-05-07 19:57:00 14.5°C 76.25% 2 μg/m³ 2 μg/m³ 4.14V / 2.99V 22,24,24,24,178,178,178,179,340,3598 v7 52.0773 / 5.09616 7032 ttn.v3 0.027km -93 11 868.1MHz, SF9BW125, 4/5CR
2026-05-07 19:42:00 14.5625°C 73.1875% 3 μg/m³ 3 μg/m³ 4.14V / 2.99V 29,30,30,30,228,229,229,229,454,3712 v7 52.0773 / 5.09616 7031 ttn.v3 0.027km -95 12.2 867.7MHz, SF9BW125, 4/5CR
2026-05-07 19:27:00 14.625°C 73.875% 2 μg/m³ 2 μg/m³ 4.16V / 2.99V 19,23,25,26,148,151,151,151,488,3730 v7 52.0773 / 5.09616 7030 ttn.v3 0.027km -91 11.2 868.3MHz, SF9BW125, 4/5CR
2026-05-07 19:12:00 14.6875°C 71% 2 μg/m³ 2 μg/m³ 4.16V / 2.99V 24,26,26,26,193,194,194,194,432,3703 v7 52.0773 / 5.09616 7029 ttn.v3 0.027km -94 11.8 867.9MHz, SF9BW125, 4/5CR
1.756km -127 -13.75 867.9MHz, SF9BW125, 4/5CR
2026-05-07 18:57:00 14.8125°C 69.4375% 3 μg/m³ 4 μg/m³ 4.16V / 2.99V 19,32,42,46,143,154,156,156,849,3598 v7 52.0773 / 5.09616 7028 ttn.v3 0.027km -91 10.5 868.5MHz, SF9BW125, 4/5CR
2026-05-07 18:42:00 14.875°C 68.3125% 1 μg/m³ 1 μg/m³ 4.16V / 2.99V 14,14,14,14,108,108,108,108,360,3527 v7 52.0773 / 5.09616 7027 ttn.v3 0.027km -93 11.8 867.3MHz, SF9BW125, 4/5CR
2026-05-07 18:26:59 15.0625°C 67.625% 3 μg/m³ 3 μg/m³ 4.16V / 2.99V 30,32,32,32,242,243,243,243,450,3668 v7 52.0773 / 5.09616 7026 ttn.v3 0.027km -94 12.5 868.1MHz, SF9BW125, 4/5CR
2026-05-07 18:11:59 15.3125°C 67.3125% 2 μg/m³ 3 μg/m³ 4.18V / 2.99V 18,27,33,36,133,141,142,142,525,3923 v7 52.0773 / 5.09616 7025 ttn.v3 0.027km -96 12.2 867.1MHz, SF9BW125, 4/5CR
2026-05-07 17:41:59 16.125°C 62.5625% 3 μg/m³ 4 μg/m³ 4.18V / 2.99V 19,32,42,47,137,149,151,151,936,4689 v7 52.0773 / 5.09616 7023 ttn.v3 0.027km -92 12 867.3MHz, SF9BW125, 4/5CR
1.756km -125 -8.75 867.3MHz, SF9BW125, 4/5CR
2026-05-07 17:27:01 16.3125°C 61.625% 2 μg/m³ 2 μg/m³ 4.18V / 2.99V 19,22,24,25,149,152,152,152,579,5472 v7 52.0773 / 5.09616 7022 ttn.v3 0.027km -94 10.5 868.5MHz, SF9BW125, 4/5CR
2026-05-07 17:11:59 16.125°C 62.25% 5 μg/m³ 6 μg/m³ 4.18V / 2.99V 42,56,65,69,325,336,338,338,625,5524 v7 52.0773 / 5.09616 7021 ttn.v3 0.027km -97 12.2 867.3MHz, SF9BW125, 4/5CR
2026-05-07 16:56:59 16.25°C 63.25% 3 μg/m³ 4 μg/m³ 4.18V / 2.99V 34,38,40,41,266,269,270,270,579,5164 v7 52.0773 / 5.09616 7020 ttn.v3 0.027km -92 10 868.5MHz, SF9BW125, 4/5CR
2026-05-07 16:41:59 16.1875°C 61.125% 2 μg/m³ 2 μg/m³ 4.18V / 2.99V 18,23,25,26,142,146,146,146,631,4609 v7 52.0773 / 5.09616 7019 ttn.v3 0.027km -97 10.5 867.5MHz, SF9BW125, 4/5CR
2026-05-07 16:26:59 15.875°C 62% 1 μg/m³ 1 μg/m³ 4.16V / 2.99V 13,16,18,19,97,100,101,101,470,4557 v7 52.0773 / 5.09616 7018 ttn.v3 0.027km -96 11 868.1MHz, SF9BW125, 4/5CR
1.756km -124 -11.75 868.1MHz, SF9BW125, 4/5CR
2026-05-07 16:11:59 15.9375°C 61.0625% 4.12V / 2.99V 8,8,8,8,64,64,64,64,442,5859 v7 52.0773 / 5.09616 7017 ttn.v3 0.027km -93 12.8 867.7MHz, SF9BW125, 4/5CR
2026-05-07 15:56:59 16.3125°C 59.5% 4 μg/m³ 4 μg/m³ 4.14V / 2.99V 37,42,45,46,293,297,298,298,480,5885 v7 52.0773 / 5.09616 7016 ttn.v3 0.027km -90 14 868.1MHz, SF9BW125, 4/5CR
1.756km -128 -14.5 868.1MHz, SF9BW125, 4/5CR
2026-05-07 15:42:07 16.125°C 58.8125% 1 μg/m³ 1 μg/m³ 4.14V / 2.99V 18,19,19,19,145,145,145,145,397,5859 v7 52.0773 / 5.09616 7015 ttn.v3 0.027km -97 12.5 867.1MHz, SF9BW125, 4/5CR
2026-05-07 15:27:13 15.8125°C 62.5625% 2 μg/m³ 2 μg/m³ 4.14V / 2.99V 19,21,21,21,149,150,150,150,482,5903 v7 52.0773 / 5.09616 7014 ttn.v3 0.027km -94 9.8 868.3MHz, SF9BW125, 4/5CR
2026-05-07 15:12:13 15.625°C 69% 2 μg/m³ 2 μg/m³ 4.14V / 2.99V 21,22,22,22,168,168,168,168,360,5780 v7 52.0773 / 5.09616 7013 ttn.v3 0.027km -96 11.8 868.1MHz, SF9BW125, 4/5CR
2026-05-07 14:57:13 15.5°C 65.4375% 1 μg/m³ 1 μg/m³ 4.14V / 2.99V 13,14,14,14,106,107,107,107,473,5903 v7 52.0773 / 5.09616 7012 ttn.v3 0.027km -93 9.5 868.5MHz, SF9BW125, 4/5CR
2026-05-07 14:42:11 15.5625°C 65.3125% 1 μg/m³ 1 μg/m³ 4.14V / 2.99V 11,16,19,20,87,91,91,91,724,5894 v7 52.0773 / 5.09616 7011 ttn.v3 0.027km -95 11.8 868.1MHz, SF9BW125, 4/5CR
2026-05-07 14:27:12 15.5625°C 63.875% 2 μg/m³ 2 μg/m³ 4.14V / 2.99V 26,27,27,27,205,205,205,205,415,5806 v7 52.0773 / 5.09616 7010 ttn.v3 0.027km -92 10.2 868.3MHz, SF9BW125, 4/5CR
2026-05-07 14:12:13 15.5625°C 64.375% 1 μg/m³ 1 μg/m³ 4.16V / 2.99V 18,19,19,19,143,143,143,143,397,5868 v7 52.0773 / 5.09616 7009 ttn.v3 0.027km -95 11.5 868.1MHz, SF9BW125, 4/5CR
2026-05-07 13:56:58 16.25°C 61.8125% 1 μg/m³ 1 μg/m³ 4.16V / 2.99V 14,15,15,15,115,115,115,115,374,5850 v7 52.0773 / 5.09616 7008 ttn.v3 0.027km -91 11 868.3MHz, SF9BW125, 4/5CR
2026-05-07 13:42:41 17.25°C 61% 1 μg/m³ 2 μg/m³ 4.16V / 2.99V 18,20,20,20,145,146,146,146,509,5929 v7 52.0773 / 5.09616 7007 ttn.v3 0.027km -100 8.2 867.1MHz, SF12BW125, 4/5CR
4.362km -107 -17 867.1MHz, SF12BW125, 4/5CR
2026-05-07 13:26:58 18.3125°C 59.3125% 3 μg/m³ 3 μg/m³ 4.16V / 2.99V 28,31,32,33,219,221,222,222,526,6334 v7 52.0771 / 5.09616 7006 ttn.v3 0.005km -97 10.2 867.5MHz, SF9BW125, 4/5CR
2026-05-07 13:11:57 18.3125°C 57.25% 1 μg/m³ 1 μg/m³ 4.18V / 2.99V 8,12,14,15,64,67,67,67,497,6334 v7 52.0771 / 5.09616 7005 ttn.v3 0.005km -94 8.5 868.5MHz, SF9BW125, 4/5CR
2026-05-07 12:56:57 18.5°C 62.4375% 2 μg/m³ 2 μg/m³ 4.18V / 2.99V 15,21,25,26,118,123,124,124,748,6299 v7 52.0771 / 5.09616 7004 ttn.v3 0.005km -91 12.8 867.7MHz, SF9BW125, 4/5CR
2026-05-07 12:41:57 16.875°C 66.5625% 1 μg/m³ 1 μg/m³ 4.18V / 2.99V 14,14,14,14,108,109,109,109,440,6351 v7 52.0771 / 5.09616 7003 ttn.v3 0.005km -101 8.2 868.3MHz, SF9BW125, 4/5CR
2026-05-07 12:26:57 14.875°C 75.9375% 4.18V / 2.99V 9,10,10,10,74,74,74,74,419,6070 v7 52.0771 / 5.09616 7002 ttn.v3 0.005km -103 11.8 867.1MHz, SF9BW125, 4/5CR
2026-05-07 12:11:57 14.625°C 82.25% 1 μg/m³ 2 μg/m³ 4.18V / 2.99V 14,18,20,21,108,111,112,112,587,6334 v7 52.0771 / 5.09616 7001 ttn.v3 0.005km -97 8 868.3MHz, SF9BW125, 4/5CR
2026-05-07 11:56:57 16.5°C 72.8125% 2 μg/m³ 3 μg/m³ 4.18V / 2.99V 19,29,36,40,140,149,150,151,698,5718 v7 52.0771 / 5.09616 7000 ttn.v3 0.005km -94 11 867.5MHz, SF9BW125, 4/5CR
2026-05-07 11:41:57 14.875°C 82.5% 4.2V / 2.99V 8,8,8,8,62,63,63,63,401,6184 v7 52.0771 / 5.09616 6999 ttn.v3 0.005km -91 13.2 868.3MHz, SF9BW125, 4/5CR
2026-05-07 11:26:57 14.8125°C 79.5% 2 μg/m³ 3 μg/m³ 4.18V / 2.99V 13,21,27,30,100,107,108,108,566,5964 v7 52.0771 / 5.09616 6998 ttn.v3 0.005km -101 10 867.5MHz, SF9BW125, 4/5CR
2026-05-07 11:11:57 14.125°C 96.4375% 2 μg/m³ 3 μg/m³ 4.18V / 2.99V 13,25,35,40,93,103,105,105,1069,6114 v7 52.0771 / 5.09616 6997 ttn.v3 0.005km -94 12.2 868.3MHz, SF9BW125, 4/5CR
2026-05-07 10:56:57 13.75°C 94.5% 1 μg/m³ 1 μg/m³ 4.18V / 2.99V 12,16,19,20,91,94,95,95,723,5436 v7 52.0771 / 5.09616 6996 ttn.v3 0.005km -103 12 867.3MHz, SF9BW125, 4/5CR
2026-05-07 10:41:56 13.4375°C 97.4375% 1 μg/m³ 3 μg/m³ 4.18V / 2.99V 11,20,27,30,76,84,86,86,967,5278 v7 52.0771 / 5.09616 6995 ttn.v3 0.005km -94 7.8 868.5MHz, SF9BW125, 4/5CR
2026-05-07 10:26:56 13.5°C 90.375% 1 μg/m³ 2 μg/m³ 4.18V / 2.99V 8,15,21,24,57,63,64,64,823,5586 v7 52.0771 / 5.09616 6994 ttn.v3 0.005km -102 11.2 867.9MHz, SF9BW125, 4/5CR
4.372km -111 -9.5 867.9MHz, SF9BW125, 4/5CR
1.741km -127 -11.5 867.9MHz, SF9BW125, 4/5CR
2026-05-07 10:11:57 13.4375°C 88.9375% 1 μg/m³ 1 μg/m³ 4.18V / 2.99V 7,11,14,15,54,57,57,58,644,5296 v7 52.0771 / 5.09616 6993 ttn.v3 0.005km -95 6 868.5MHz, SF9BW125, 4/5CR
2026-05-07 09:56:56 13.8125°C 94% 1 μg/m³ 1 μg/m³ 4.18V / 2.99V 8,11,13,14,60,62,63,63,547,6281 v7 52.0771 / 5.09616 6992 ttn.v3 0.005km -98 12.2 867.7MHz, SF9BW125, 4/5CR
2026-05-07 09:42:01 14.0625°C 90.8125% 4 μg/m³ 7 μg/m³ 4.18V / 2.99V 24,45,62,70,167,186,189,190,886,5111 v7 52.0771 / 5.09616 6991 ttn.v3 0.005km -95 8 868.5MHz, SF9BW125, 4/5CR
2026-05-07 09:27:00 13.6875°C 93.4375% 3 μg/m³ 3 μg/m³ 4.18V / 2.99V 28,33,36,38,216,220,221,221,553,6114 v7 52.0771 / 5.09616 6990 ttn.v3 0.005km -96 12.5 868.1MHz, SF9BW125, 4/5CR
2026-05-07 09:11:59 11.25°C 112.812% 4 μg/m³ 6 μg/m³ 4.16V / 2.99V 23,41,56,63,163,179,182,182,862,5322 v7 52.0771 / 5.09616 6989 ttn.v3 0.005km -96 9.2 868.5MHz, SF9BW125, 4/5CR
2026-05-07 08:56:59 10°C 1.4375% 7 μg/m³ 13 μg/m³ 4.06V / 2.99V 32,79,117,135,210,251,259,260,916,4346 v7 52.0771 / 5.09616 6988 ttn.v3 0.005km -97 10.2 868.3MHz, SF9BW125, 4/5CR
2026-05-07 08:41:59 9.75°C 7.4375% 3 μg/m³ 4 μg/m³ 4.06V / 2.99V 24,36,46,50,181,191,193,194,835,4328 v7 52.0771 / 5.09616 6987 ttn.v3 0.005km -98 7.2 868.3MHz, SF9BW125, 4/5CR
2026-05-07 08:26:58 9.5°C 9.75% 3 μg/m³ 4 μg/m³ 4.06V / 2.99V 27,34,39,42,210,216,217,217,666,4310 v7 52.0771 / 5.09616 6986 ttn.v3 0.005km -97 12.5 868.1MHz, SF9BW125, 4/5CR
2026-05-07 08:11:58 9.25°C 13.375% 3 μg/m³ 5 μg/m³ 4.06V / 2.99V 24,39,51,57,177,190,192,193,822,4302 v7 52.0771 / 5.09616 6985 ttn.v3 0.005km -100 12.5 868.1MHz, SF9BW125, 4/5CR
2026-05-07 07:56:58 8.9375°C 16.875% 3 μg/m³ 6 μg/m³ 4.04V / 2.99V 14,37,56,65,85,106,109,110,1285,4293 v7 52.0771 / 5.09616 6984 ttn.v3 0.005km -99 11.5 868.1MHz, SF9BW125, 4/5CR

Message count: 200
Node count: 1

Messages per node

Number of messages in list aboveNodes
200

Statistics per gateway

GatewayNumber of messagesNumber of nodesNodes
2001 (0.005km)
321 (1.741km)
51 (4.372km)
11

Filter by dataset